Time;durP1;ratioP1;P1;durP2;ratioP2;P2;SDS_P1;SDS_P2;PMS_P1;PMS_P2;Temp;Humidity;BMP_temperature;BMP_pressure;BME280_temperature;BME280_humidity;BME280_pressure;Samples;Min_cycle;Max_cycle;Signal;HPM_P1;HPM_P2
2021/08/14 00:02:22;;;;;;;;;;;15.50;99.90;;;;;;5043944;28;20048;-79
2021/08/14 00:04:48;;;;;;;2.88;1.85;;;15.50;99.90;;;;;;5038117;28;19924;-80
2021/08/14 00:07:15;;;;;;;1.23;1.10;;;15.40;99.90;;;;;;5052176;28;20364;-79
2021/08/14 00:09:41;;;;;;;2.13;1.40;;;15.40;99.90;;;;;;5050821;28;20184;-78
2021/08/14 00:12:08;;;;;;;5.95;2.17;;;15.40;99.90;;;;;;5051763;28;20501;-80
2021/08/14 00:14:34;;;;;;;2.95;1.75;;;15.40;99.90;;;;;;5049831;28;20394;-79
2021/08/14 00:17:00;;;;;;;1.98;1.25;;;15.40;99.90;;;;;;5050825;28;20040;-79
2021/08/14 00:19:26;;;;;;;;;;;15.40;99.90;;;;;;5051765;28;20033;-80
2021/08/14 00:21:52;;;;;;;7.75;3.28;;;15.40;99.90;;;;;;5051774;28;19978;-81
2021/08/14 00:24:18;;;;;;;;;;;15.30;99.90;;;;;;5034237;28;20060;-80
2021/08/14 00:26:44;;;;;;;1.10;0.98;;;15.30;99.90;;;;;;5051078;28;19917;-81
2021/08/14 00:29:11;;;;;;;5.40;1.85;;;15.30;99.90;;;;;;5048243;28;20034;-78
2021/08/14 00:31:37;;;;;;;7.53;1.60;;;15.30;99.90;;;;;;5043766;28;20060;-81
2021/08/14 00:34:03;;;;;;;5.45;2.38;;;15.20;99.90;;;;;;5049302;28;20471;-80
2021/08/14 00:36:28;;;;;;;;;;;15.20;99.90;;;;;;5052064;28;20108;-80
2021/08/14 00:38:54;;;;;;;1.92;1.35;;;15.20;99.90;;;;;;5054562;28;19975;-77
2021/08/14 00:41:20;;;;;;;;;;;15.20;99.90;;;;;;5055121;28;20040;-78
2021/08/14 00:43:48;;;;;;;10.43;1.17;;;15.20;99.90;;;;;;5053743;28;20400;-78
2021/08/14 00:46:14;;;;;;;12.73;2.00;;;15.20;99.90;;;;;;5054419;28;20059;-77
2021/08/14 00:48:40;;;;;;;1.52;1.30;;;15.20;99.90;;;;;;5055436;28;20050;-80
2021/08/14 00:51:08;;;;;;;4.57;2.33;;;15.20;99.90;;;;;;5054224;28;20041;-79
2021/08/14 00:53:34;;;;;;;1.25;1.15;;;15.20;99.90;;;;;;5041251;28;20037;-79
2021/08/14 00:56:00;;;;;;;1.02;0.93;;;15.30;99.90;;;;;;5054350;28;20045;-80
2021/08/14 00:58:26;;;;;;;2.53;0.95;;;15.20;99.90;;;;;;5041542;28;20048;-79
2021/08/14 01:00:52;;;;;;;2.40;1.83;;;15.20;99.90;;;;;;5054013;28;20052;-80
2021/08/14 01:03:18;;;;;;;;;;;15.20;99.90;;;;;;5032023;28;20364;-79
2021/08/14 01:05:46;;;;;;;1.15;1.00;;;15.20;99.90;;;;;;5047052;28;20019;-79
2021/08/14 01:08:15;;;;;;;4.90;1.90;;;15.20;99.90;;;;;;5053902;28;20045;-80
2021/08/14 01:10:42;;;;;;;2.00;1.73;;;15.20;99.90;;;;;;5053112;28;20036;-79
2021/08/14 01:13:09;;;;;;;3.83;2.55;;;15.20;99.90;;;;;;5052101;28;20437;-79
2021/08/14 01:15:35;;;;;;;5.18;1.02;;;15.10;99.90;;;;;;5053857;28;20566;-78
2021/08/14 01:18:01;;;;;;;4.63;1.83;;;15.10;99.90;;;;;;5054551;28;20052;-79
2021/08/14 01:20:27;;;;;;;3.85;1.63;;;15.00;99.90;;;;;;5055103;28;20041;-78
2021/08/14 01:22:53;;;;;;;4.90;1.85;;;15.10;99.90;;;;;;5055803;28;20073;-78
2021/08/14 01:25:19;;;;;;;;;;;15.00;99.90;;;;;;5053985;28;20513;-79
2021/08/14 01:27:46;;;;;;;9.00;2.03;;;15.00;99.90;;;;;;5052901;28;19921;-79
2021/08/14 01:30:13;;;;;;;2.47;1.65;;;15.10;99.90;;;;;;5053193;28;20044;-78
2021/08/14 01:32:39;;;;;;;1.90;1.17;;;15.10;99.90;;;;;;5051561;28;20482;-81
2021/08/14 01:35:07;;;;;;;2.05;1.55;;;15.10;99.90;;;;;;5052299;28;20040;-79
2021/08/14 01:37:33;;;;;;;1.80;1.40;;;15.10;99.90;;;;;;5052712;28;20041;-79
2021/08/14 01:40:00;;;;;;;2.55;1.48;;;15.10;99.90;;;;;;5053194;28;20111;-78
2021/08/14 01:42:26;;;;;;;4.13;1.83;;;15.10;99.90;;;;;;5052473;28;20072;-79
2021/08/14 01:44:52;;;;;;;;;;;15.20;99.90;;;;;;5053452;28;20431;-79
2021/08/14 01:47:18;;;;;;;7.38;2.25;;;15.20;99.90;;;;;;5051579;28;19921;-79
2021/08/14 01:49:43;;;;;;;1.15;0.98;;;15.20;99.90;;;;;;5052598;28;20036;-79
2021/08/14 01:52:14;;;;;;;7.22;2.10;;;15.30;99.90;;;;;;5053276;28;20479;-78
2021/08/14 01:54:41;;;;;;;2.72;2.38;;;15.30;99.90;;;;;;5052135;28;20045;-79
2021/08/14 01:57:07;;;;;;;3.65;1.58;;;15.30;99.90;;;;;;5053511;28;20120;-79
2021/08/14 01:59:34;;;;;;;3.17;1.80;;;15.30;99.90;;;;;;5053868;28;20045;-79
2021/08/14 02:02:01;;;;;;;8.57;1.58;;;15.40;99.90;;;;;;5051044;28;20114;-79
2021/08/14 02:04:27;;;;;;;1.27;1.17;;;15.40;99.90;;;;;;5037885;28;20041;-79
2021/08/14 02:06:53;;;;;;;2.42;1.75;;;15.40;99.90;;;;;;5051748;28;20089;-79
2021/08/14 02:09:19;;;;;;;4.15;1.52;;;15.40;99.90;;;;;;5052595;28;20471;-78
2021/08/14 02:11:45;;;;;;;4.57;1.92;;;15.40;99.90;;;;;;5051742;28;20041;-79
2021/08/14 02:14:12;;;;;;;7.45;2.28;;;15.40;99.90;;;;;;5034648;28;20056;-79
2021/08/14 02:16:39;;;;;;;6.18;2.33;;;15.40;99.90;;;;;;5051346;28;20037;-79
2021/08/14 02:19:05;;;;;;;2.05;1.75;;;15.40;99.90;;;;;;5052225;28;20033;-78
2021/08/14 02:21:31;;;;;;;;;;;15.40;99.90;;;;;;5044393;28;20041;-79
2021/08/14 02:23:58;;;;;;;1.33;1.23;;;15.40;99.90;;;;;;5052309;28;19938;-78
2021/08/14 02:26:24;;;;;;;2.35;1.67;;;15.40;99.90;;;;;;5051106;28;20052;-79
2021/08/14 02:28:50;;;;;;;3.33;1.95;;;15.40;99.90;;;;;;5049676;28;20093;-78
2021/08/14 02:31:17;;;;;;;5.22;1.73;;;15.40;99.90;;;;;;5050549;28;20047;-79
2021/08/14 02:33:43;;;;;;;1.45;1.20;;;15.50;99.90;;;;;;5033069;28;20032;-78
2021/08/14 02:36:11;;;;;;;5.28;2.55;;;15.50;99.90;;;;;;5035400;28;20037;-78
2021/08/14 02:38:39;;;;;;;4.00;2.28;;;15.50;99.90;;;;;;5052061;28;20065;-79
2021/08/14 02:41:06;;;;;;;11.80;2.35;;;15.50;99.90;;;;;;5051978;28;20433;-79
2021/08/14 02:43:33;;;;;;;5.80;2.13;;;15.50;99.90;;;;;;5032368;28;20045;-77
2021/08/14 02:46:02;;;;;;;2.60;1.33;;;15.50;99.90;;;;;;5043368;28;20433;-77
2021/08/14 02:48:29;;;;;;;3.65;1.38;;;15.50;99.90;;;;;;5050624;28;20037;-78
2021/08/14 02:50:55;;;;;;;4.22;2.03;;;15.50;99.90;;;;;;5051527;28;20092;-79
2021/08/14 02:53:21;;;;;;;2.83;2.03;;;15.50;99.90;;;;;;5052100;28;20119;-78
2021/08/14 02:55:46;;;;;;;;;;;15.50;99.90;;;;;;5051758;28;20052;-79
2021/08/14 02:58:12;;;;;;;2.15;1.38;;;15.50;99.90;;;;;;5050390;28;19917;-79
2021/08/14 03:00:38;;;;;;;;;;;15.40;99.90;;;;;;5051113;28;20087;-79
2021/08/14 03:03:04;;;;;;;19.92;2.80;;;15.50;99.90;;;;;;5046908;28;20363;-78
2021/08/14 03:05:30;;;;;;;;;;;15.40;99.90;;;;;;5045592;28;20044;-79
2021/08/14 03:07:56;;;;;;;5.60;2.25;;;15.40;99.90;;;;;;5051918;28;19917;-79
2021/08/14 03:10:22;;;;;;;;;;;15.40;99.90;;;;;;5051736;28;20048;-78
2021/08/14 03:12:48;;;;;;;5.00;1.88;;;15.40;99.90;;;;;;5051315;28;19947;-79
2021/08/14 03:15:14;;;;;;;1.75;1.20;;;15.40;99.90;;;;;;5053217;28;20037;-78
2021/08/14 03:17:40;;;;;;;8.88;2.30;;;15.40;99.90;;;;;;5048826;28;20048;-79
2021/08/14 03:20:07;;;;;;;2.08;1.63;;;15.40;99.90;;;;;;5045216;28;20407;-79
2021/08/14 03:22:33;;;;;;;4.18;2.67;;;15.40;99.90;;;;;;5048796;28;20045;-80
2021/08/14 03:24:59;;;;;;;4.75;2.55;;;15.40;99.90;;;;;;5051491;28;20036;-79
2021/08/14 03:27:25;;;;;;;;;;;15.40;99.90;;;;;;5050278;28;20064;-79
2021/08/14 03:29:50;;;;;;;2.10;1.85;;;15.40;99.90;;;;;;5050879;28;19917;-79
2021/08/14 03:32:17;;;;;;;3.97;1.92;;;15.40;99.90;;;;;;5049033;28;20041;-79
2021/08/14 03:34:43;;;;;;;2.13;1.77;;;15.40;99.90;;;;;;5050833;28;20498;-78
2021/08/14 03:37:08;;;;;;;;;;;15.40;99.90;;;;;;5050621;28;20080;-80
2021/08/14 03:39:34;;;;;;;2.08;1.58;;;15.40;99.90;;;;;;5051070;28;20016;-79
2021/08/14 03:42:01;;;;;;;;;;;15.40;99.90;;;;;;5051332;28;20037;-79
2021/08/14 03:44:27;;;;;;;4.23;1.87;;;15.40;99.90;;;;;;5051384;28;20613;-79
2021/08/14 03:46:52;;;;;;;10.38;2.58;;;15.40;99.90;;;;;;5049458;28;20036;-80
2021/08/14 03:49:19;;;;;;;9.73;2.92;;;15.40;99.90;;;;;;5051139;28;20029;-80
2021/08/14 03:51:45;;;;;;;5.50;2.10;;;15.40;99.90;;;;;;5050386;28;20041;-79
2021/08/14 03:54:11;;;;;;;;;;;15.40;99.90;;;;;;5050356;28;20415;-79
2021/08/14 03:56:38;;;;;;;2.78;1.83;;;15.40;99.90;;;;;;5050405;28;19951;-79
2021/08/14 03:59:04;;;;;;;4.50;2.25;;;15.40;99.90;;;;;;5051396;28;20061;-79
2021/08/14 04:01:35;;;;;;;2.08;1.52;;;15.40;99.90;;;;;;5046485;28;20037;-79
2021/08/14 04:04:01;;;;;;;1.80;1.38;;;15.40;99.90;;;;;;5028965;28;20045;-80
2021/08/14 04:06:27;;;;;;;;;;;15.40;99.90;;;;;;5049861;28;20041;-79
2021/08/14 04:08:52;;;;;;;4.25;1.77;;;15.30;99.90;;;;;;5049392;28;19924;-79
2021/08/14 04:11:18;;;;;;;;;;;15.30;99.90;;;;;;5052433;28;20387;-79
2021/08/14 04:13:44;;;;;;;2.45;2.25;;;15.40;99.90;;;;;;5054003;28;19925;-79
2021/08/14 04:16:10;;;;;;;;;;;15.40;99.90;;;;;;5037781;28;20402;-79
2021/08/14 04:18:36;;;;;;;3.97;2.00;;;15.40;99.90;;;;;;5053527;28;20015;-79
2021/08/14 04:21:01;;;;;;;;;;;15.40;99.90;;;;;;5046599;28;20040;-79
2021/08/14 04:23:27;;;;;;;2.78;1.27;;;15.40;99.90;;;;;;5055009;28;20393;-80
2021/08/14 04:25:53;;;;;;;5.32;1.40;;;15.40;99.90;;;;;;5053731;28;20048;-79
2021/08/14 04:28:19;;;;;;;;;;;15.40;99.90;;;;;;5054210;28;20037;-79
2021/08/14 04:30:47;;;;;;;8.50;2.28;;;15.40;99.90;;;;;;5054536;28;19921;-79
2021/08/14 04:33:13;;;;;;;3.90;2.72;;;15.40;99.90;;;;;;5053537;28;20063;-80
2021/08/14 04:35:39;;;;;;;5.13;3.35;;;15.40;99.90;;;;;;5054095;28;20041;-79
2021/08/14 04:38:05;;;;;;;;;;;15.40;99.90;;;;;;5037308;28;20033;-80
2021/08/14 04:40:32;;;;;;;3.15;1.77;;;15.40;99.90;;;;;;5054359;28;19924;-79
2021/08/14 04:42:58;;;;;;;2.38;1.77;;;15.40;99.90;;;;;;5052893;28;20049;-80
2021/08/14 04:45:24;;;;;;;11.40;2.60;;;15.40;99.90;;;;;;5054600;28;20116;-80
2021/08/14 04:47:51;;;;;;;14.20;2.50;;;15.50;99.90;;;;;;5053001;28;20037;-79
2021/08/14 04:50:17;;;;;;;2.15;1.63;;;15.50;99.90;;;;;;5057136;28;20052;-79
2021/08/14 04:52:43;;;;;;;2.35;1.58;;;15.50;99.90;;;;;;5053443;28;20056;-79
2021/08/14 04:55:10;;;;;;;3.42;2.03;;;15.50;99.90;;;;;;5053484;28;20037;-81
2021/08/14 04:57:36;;;;;;;9.38;2.05;;;15.50;99.90;;;;;;5037481;28;20478;-79
2021/08/14 05:00:04;;;;;;;2.92;1.70;;;15.60;99.90;;;;;;5054805;28;20048;-80
2021/08/14 05:02:30;;;;;;;3.42;2.63;;;15.60;99.90;;;;;;5043787;28;20041;-78
2021/08/14 05:04:56;;;;;;;3.55;1.55;;;15.70;99.90;;;;;;5044722;28;20048;-79
2021/08/14 05:07:22;;;;;;;3.88;2.08;;;15.60;99.90;;;;;;5054470;28;20049;-79
2021/08/14 05:09:49;;;;;;;0.60;0.60;;;15.70;99.90;;;;;;5054321;28;20402;-79
2021/08/14 05:12:15;;;;;;;4.95;2.08;;;15.80;99.90;;;;;;5054011;28;20550;-80
2021/08/14 05:14:42;;;;;;;2.25;1.83;;;15.80;99.90;;;;;;5053192;28;20041;-78
2021/08/14 05:17:08;;;;;;;1.92;1.42;;;15.80;99.90;;;;;;5055188;28;20174;-78
2021/08/14 05:19:37;;;;;;;4.32;1.80;;;15.90;99.90;;;;;;5054838;28;20045;-78
2021/08/14 05:22:03;;;;;;;2.90;1.73;;;15.90;99.90;;;;;;5036753;28;20043;-81
2021/08/14 05:24:28;;;;;;;;;;;16.00;99.90;;;;;;5056803;28;20032;-78
2021/08/14 05:26:54;;;;;;;4.00;1.95;;;16.00;99.90;;;;;;5055411;28;20388;-80
2021/08/14 05:29:20;;;;;;;;;;;16.00;99.90;;;;;;5056897;28;20052;-80
2021/08/14 05:31:46;;;;;;;7.30;1.63;;;16.10;99.90;;;;;;5064052;28;19928;-80
2021/08/14 05:34:13;;;;;;;5.85;2.70;;;16.10;99.90;;;;;;5058115;28;20047;-79
2021/08/14 05:36:39;;;;;;;;;;;16.20;99.90;;;;;;5053879;28;20048;-80
2021/08/14 05:39:05;;;;;;;3.08;1.35;;;16.20;99.90;;;;;;5057839;28;20345;-80
2021/08/14 05:41:36;;;;;;;2.17;1.65;;;16.20;99.90;;;;;;5057110;28;20094;-81
2021/08/14 05:44:03;;;;;;;1.48;1.38;;;16.30;99.90;;;;;;5056434;28;20045;-81
2021/08/14 05:46:29;;;;;;;3.50;2.05;;;16.40;99.90;;;;;;5056041;28;20116;-79
2021/08/14 05:48:54;;;;;;;;;;;16.50;99.90;;;;;;5054574;28;20127;-80
2021/08/14 05:51:20;;;;;;;2.20;1.60;;;16.50;99.90;;;;;;5055980;28;19964;-80
2021/08/14 05:53:46;;;;;;;;;;;16.60;99.90;;;;;;5056621;28;20056;-80
2021/08/14 05:56:11;;;;;;;4.57;2.20;;;16.60;99.90;;;;;;5055105;28;19943;-80
2021/08/14 05:58:37;;;;;;;;;;;16.70;99.90;;;;;;5054389;28;20036;-81
2021/08/14 06:01:03;;;;;;;2.30;2.10;;;16.70;99.90;;;;;;5053415;28;19970;-80
2021/08/14 06:03:35;;;;;;;;;;;16.80;99.90;;;;;;5044544;28;20033;-80
2021/08/14 06:06:04;;;;;;;3.90;1.85;;;16.90;99.90;;;;;;5049101;28;19998;-78
2021/08/14 06:08:33;;;;;;;2.03;1.58;;;17.00;99.90;;;;;;5052321;28;20397;-78
2021/08/14 06:10:59;;;;;;;1.85;1.55;;;17.10;99.90;;;;;;5036573;28;20041;-79
2021/08/14 06:13:24;;;;;;;1.55;1.45;;;17.30;99.90;;;;;;5053139;28;20061;-79
2021/08/14 06:15:50;;;;;;;;;;;17.40;99.90;;;;;;5054492;28;20041;-79
2021/08/14 06:18:16;;;;;;;3.75;1.95;;;17.60;99.90;;;;;;5052996;28;20280;-79
2021/08/14 06:20:43;;;;;;;6.00;1.80;;;17.70;99.90;;;;;;5052949;28;20043;-79
2021/08/14 06:23:09;;;;;;;;;;;17.80;99.90;;;;;;5051823;28;20120;-79
2021/08/14 06:25:35;;;;;;;5.75;2.17;;;17.80;99.90;;;;;;5053033;28;19917;-79
2021/08/14 06:28:06;;;;;;;4.43;2.00;;;17.90;99.90;;;;;;5052149;28;20033;-79
2021/08/14 06:30:34;;;;;;;4.07;2.05;;;17.80;99.90;;;;;;5052677;28;20091;-80
2021/08/14 06:33:00;;;;;;;;;;;17.90;99.90;;;;;;5052033;28;20045;-80
2021/08/14 06:35:26;;;;;;;3.55;2.88;;;18.00;99.90;;;;;;5052101;28;19986;-79
2021/08/14 06:37:52;;;;;;;;;;;18.00;99.90;;;;;;5052909;28;20456;-79
2021/08/14 06:40:18;;;;;;;3.80;2.08;;;18.10;99.90;;;;;;5051117;28;20011;-80
2021/08/14 06:42:43;;;;;;;;;;;18.10;99.90;;;;;;5052901;28;20083;-80
2021/08/14 06:45:10;;;;;;;5.82;1.95;;;18.10;99.90;;;;;;5052859;28;20350;-79
2021/08/14 06:47:37;;;;;;;4.88;1.95;;;18.10;99.90;;;;;;5034154;28;20041;-80
2021/08/14 06:50:05;;;;;;;5.30;2.00;;;18.20;99.90;;;;;;5050705;28;20382;-80
2021/08/14 06:52:34;;;;;;;4.15;2.72;;;18.20;99.90;;;;;;5052130;28;20041;-79
2021/08/14 06:55:03;;;;;;;3.92;1.67;;;18.30;99.90;;;;;;5052800;28;20045;-80
2021/08/14 06:57:29;;;;;;;3.22;1.83;;;18.30;99.90;;;;;;5050905;28;20040;-80
2021/08/14 06:59:56;;;;;;;7.93;2.20;;;18.30;99.90;;;;;;5050363;28;20067;-80
2021/08/14 07:02:21;;;;;;;;;;;18.40;99.90;;;;;;5051267;28;20044;-80
2021/08/14 07:04:48;;;;;;;3.00;2.35;;;18.50;99.90;;;;;;5038468;28;19924;-79
2021/08/14 07:07:17;;;;;;;;;;;18.70;99.90;;;;;;5052097;28;20053;-81
2021/08/14 07:09:44;;;;;;;2.15;1.70;;;18.80;99.90;;;;;;5052257;28;19970;-80
2021/08/14 07:12:10;;;;;;;4.07;2.20;;;18.90;99.90;;;;;;5051634;28;20066;-80
2021/08/14 07:14:35;;;;;;;3.95;2.70;;;18.90;99.90;;;;;;5051026;28;20045;-80
2021/08/14 07:17:01;;;;;;;3.88;2.08;;;18.80;99.90;;;;;;5050694;28;20182;-79
2021/08/14 07:19:28;;;;;;;;;;;18.80;99.90;;;;;;5050398;28;20048;-80
2021/08/14 07:21:54;;;;;;;3.05;1.95;;;18.80;99.90;;;;;;5044065;28;19924;-80
2021/08/14 07:24:19;;;;;;;;;;;18.90;99.90;;;;;;5051285;28;20045;-80
2021/08/14 07:26:46;;;;;;;5.53;2.63;;;18.90;99.90;;;;;;5051733;28;19923;-80
2021/08/14 07:29:11;;;;;;;;;;;18.90;99.90;;;;;;5048827;28;20127;-79
2021/08/14 07:31:37;;;;;;;2.63;1.67;;;18.90;99.90;;;;;;5044531;28;20003;-79
2021/08/14 07:34:03;;;;;;;;;;;19.00;99.90;;;;;;5050107;28;20045;-80
2021/08/14 07:36:29;;;;;;;2.38;2.13;;;18.90;99.90;;;;;;5051189;28;19927;-81
2021/08/14 07:38:55;;;;;;;;;;;18.80;99.90;;;;;;5052522;28;20037;-80
2021/08/14 07:41:21;;;;;;;1.55;1.42;;;18.80;99.90;;;;;;5051908;28;19970;-81
2021/08/14 07:43:46;;;;;;;;;;;18.90;99.90;;;;;;5051151;28;20041;-80
2021/08/14 07:46:12;;;;;;;4.47;2.47;;;18.90;99.90;;;;;;5053867;28;19928;-81
2021/08/14 07:48:38;;;;;;;;;;;18.90;99.90;;;;;;5055312;28;20033;-80
2021/08/14 07:51:03;;;;;;;2.75;1.60;;;19.00;99.90;;;;;;5055966;28;19917;-80
2021/08/14 07:53:29;;;;;;;;;;;19.00;99.90;;;;;;5056552;28;20037;-79
2021/08/14 07:55:55;;;;;;;5.55;2.35;;;19.10;99.90;;;;;;5055681;28;19920;-80
2021/08/14 07:58:21;;;;;;;1.95;1.40;;;19.10;99.90;;;;;;5036154;28;20396;-80
2021/08/14 08:00:46;;;;;;;;;;;19.20;99.90;;;;;;5054801;28;20052;-80
2021/08/14 08:03:12;;;;;;;3.88;1.55;;;19.20;99.90;;;;;;5053784;28;19930;-79
2021/08/14 08:05:38;;;;;;;5.13;1.90;;;19.40;99.90;;;;;;5054142;28;20140;-79
2021/08/14 08:08:05;;;;;;;5.20;1.85;;;19.60;99.90;;;;;;5055697;28;20153;-78
2021/08/14 08:10:33;;;;;;;1.33;1.23;;;19.70;99.90;;;;;;5055512;28;20036;-79
2021/08/14 08:12:58;;;;;;;6.32;2.35;;;19.70;99.90;;;;;;5041090;28;20445;-80
2021/08/14 08:15:25;;;;;;;1.88;1.55;;;19.80;99.90;;;;;;5055619;28;20104;-80
2021/08/14 08:17:52;;;;;;;3.60;2.33;;;19.90;99.90;;;;;;5053950;28;20064;-78
2021/08/14 08:20:19;;;;;;;5.53;1.92;;;19.90;99.90;;;;;;5048272;28;20034;-79
2021/08/14 08:22:45;;;;;;;1.80;1.45;;;20.00;99.90;;;;;;5054194;28;20485;-81
2021/08/14 08:25:13;;;;;;;3.53;2.22;;;20.30;99.90;;;;;;5054749;28;20490;-80
2021/08/14 08:27:40;;;;;;;2.80;1.42;;;20.40;99.90;;;;;;5055708;28;20151;-80
2021/08/14 08:30:08;;;;;;;2.22;1.33;;;20.60;99.90;;;;;;5054854;28;20041;-79
2021/08/14 08:32:34;;;;;;;2.20;1.77;;;20.80;99.90;;;;;;5054552;28;20526;-80
2021/08/14 08:35:00;;;;;;;10.02;1.05;;;21.10;99.90;;;;;;5054723;28;20057;-79
2021/08/14 08:37:27;;;;;;;1.98;1.35;;;21.30;99.90;;;;;;5055016;28;20041;-79
2021/08/14 08:39:53;;;;;;;2.95;1.63;;;21.50;99.90;;;;;;5054507;28;20128;-80
2021/08/14 08:42:19;;;;;;;;;;;21.70;99.90;;;;;;5053833;28;20079;-79
2021/08/14 08:44:44;;;;;;;2.60;1.27;;;21.90;99.90;;;;;;5055845;28;19917;-81
2021/08/14 08:47:11;;;;;;;2.10;1.23;;;22.10;99.90;;;;;;5054151;28;20033;-80
2021/08/14 08:49:49;;;;;;;4.43;1.30;;;22.20;99.90;;;;;;5056203;28;20044;-81
2021/08/14 08:52:15;;;;;;;1.92;1.25;;;22.20;99.90;;;;;;5054360;28;20090;-80
2021/08/14 08:54:41;;;;;;;1.92;1.30;;;22.00;99.90;;;;;;5054798;28;20041;-79
2021/08/14 08:57:06;;;;;;;2.13;1.30;;;21.80;99.90;;;;;;5053214;28;20037;-79
2021/08/14 08:59:32;;;;;;;4.13;1.52;;;21.70;99.90;;;;;;5055409;28;20163;-79
2021/08/14 09:01:58;;;;;;;1.35;1.17;;;21.60;99.90;;;;;;5053633;28;20041;-80
2021/08/14 09:04:26;;;;;;;2.95;1.13;;;21.40;99.90;;;;;;5041476;28;20095;-81
2021/08/14 09:06:54;;;;;;;0.93;0.80;;;21.40;99.90;;;;;;5055200;28;20585;-79
2021/08/14 09:09:33;;;;;;;3.97;1.15;;;21.40;99.90;;;;;;5054462;28;20129;-80
2021/08/14 09:12:06;;;;;;;2.40;1.83;;;21.40;99.90;;;;;;5053718;28;20044;-80
2021/08/14 09:14:52;;;;;;;3.00;1.05;;;21.50;99.90;;;;;;5054967;28;20070;-79
2021/08/14 09:17:24;;;;;;;3.05;1.60;;;21.60;99.90;;;;;;5054725;28;20056;-79
2021/08/14 09:19:50;;;;;;;2.05;1.25;;;21.80;99.90;;;;;;5056467;28;20123;-79
2021/08/14 09:22:20;;;;;;;1.90;1.45;;;21.90;99.90;;;;;;5057726;28;20065;-81
2021/08/14 09:24:46;;;;;;;1.20;1.08;;;21.80;99.90;;;;;;5053789;28;20083;-80
2021/08/14 09:27:15;;;;;;;3.55;1.65;;;21.70;99.90;;;;;;5052415;28;20179;-81
2021/08/14 09:29:43;;;;;;;2.75;1.38;;;21.70;99.90;;;;;;5052586;28;20502;-80
2021/08/14 09:32:14;;;;;;;4.10;1.42;;;21.70;99.90;;;;;;5052119;28;20062;-81
2021/08/14 09:34:49;;;;;;;2.67;1.20;;;21.60;99.90;;;;;;5054189;28;20045;-79
2021/08/14 09:37:17;;;;;;;2.45;1.45;;;21.50;99.90;;;;;;5053594;28;20187;-83
2021/08/14 09:39:57;;;;;;;2.10;1.60;;;21.60;99.90;;;;;;5053977;28;20033;-79
2021/08/14 09:42:25;;;;;;;2.50;1.30;;;21.50;99.90;;;;;;5048760;28;20059;-80
2021/08/14 09:45:17;;;;;;;2.15;1.30;;;21.40;99.90;;;;;;5053461;28;20037;-81
2021/08/14 09:47:45;;;;;;;2.92;1.90;;;21.50;99.90;;;;;;5052400;28;20045;-79
2021/08/14 09:50:11;;;;;;;4.10;1.83;;;21.80;99.90;;;;;;5052862;28;20060;-80
2021/08/14 09:52:37;;;;;;;2.35;1.95;;;22.20;99.90;;;;;;5035371;28;20459;-80
2021/08/14 09:55:04;;;;;;;4.70;1.90;;;22.50;99.90;;;;;;5051707;28;20045;-80
2021/08/14 09:57:30;;;;;;;1.90;1.42;;;22.60;99.90;;;;;;5053147;28;20037;-79
2021/08/14 09:59:59;;;;;;;2.20;1.35;;;22.50;99.90;;;;;;5051818;28;20094;-80
2021/08/14 10:02:27;;;;;;;7.25;1.33;;;22.40;99.90;;;;;;5051965;28;20044;-83
2021/08/14 10:04:58;;;;;;;5.05;1.50;;;22.30;99.90;;;;;;5038369;28;20119;-80
2021/08/14 10:07:25;;;;;;;2.67;1.17;;;22.30;99.90;;;;;;5053336;28;20051;-80
2021/08/14 10:09:52;;;;;;;2.22;1.33;;;22.30;99.90;;;;;;5051882;28;20043;-80
2021/08/14 10:12:20;;;;;;;1.13;0.90;;;22.30;99.90;;;;;;5053054;28;20049;-82
2021/08/14 10:14:49;;;;;;;2.75;1.30;;;22.30;99.90;;;;;;5054720;28;20068;-79
2021/08/14 10:17:23;;;;;;;1.75;1.40;;;22.20;99.90;;;;;;5051278;28;20524;-80
2021/08/14 10:19:52;;;;;;;2.35;1.40;;;22.10;99.90;;;;;;5052662;28;20041;-81
2021/08/14 10:22:25;;;;;;;2.92;1.33;;;22.00;99.90;;;;;;5051569;28;20064;-80
2021/08/14 10:24:51;;;;;;;2.30;1.63;;;22.00;99.90;;;;;;5052984;28;20103;-81
2021/08/14 10:27:19;;;;;;;1.40;1.17;;;22.00;99.90;;;;;;5051830;28;20171;-79
2021/08/14 10:29:52;;;;;;;1.48;1.13;;;22.10;99.90;;;;;;5051750;28;20036;-80
2021/08/14 10:32:30;;;;;;;5.68;1.58;;;22.20;99.90;;;;;;5052302;28;20437;-80
2021/08/14 10:35:17;;;;;;;3.08;1.70;;;22.40;99.90;;;;;;5053492;28;20642;-80
2021/08/14 10:37:48;;;;;;;1.58;1.05;;;21.90;99.90;;;;;;5055996;28;20061;-80
2021/08/14 10:40:17;;;;;;;2.95;1.23;;;21.90;99.90;;;;;;5053000;28;20037;-79
2021/08/14 10:42:49;;;;;;;1.60;1.27;;;21.80;99.90;;;;;;5052246;28;20037;-79
2021/08/14 10:45:19;;;;;;;13.20;2.45;;;21.90;99.90;;;;;;5052081;28;20037;-78
2021/08/14 10:47:47;;;;;;;9.57;1.73;;;22.20;99.90;;;;;;5051786;28;20056;-79
2021/08/14 10:50:31;;;;;;;1.95;1.58;;;22.30;99.90;;;;;;5052519;28;20040;-79
2021/08/14 10:53:22;;;;;;;1.25;1.05;;;22.30;99.90;;;;;;5051824;28;20087;-80
2021/08/14 10:55:53;;;;;;;2.35;1.35;;;22.10;99.90;;;;;;5052525;28;20102;-78
2021/08/14 10:58:19;;;;;;;2.90;1.70;;;21.90;99.90;;;;;;5051506;28;20577;-79
2021/08/14 11:00:45;;;;;;;2.47;1.58;;;21.90;99.90;;;;;;5052024;28;20044;-79
2021/08/14 11:03:13;;;;;;;2.25;0.90;;;21.90;99.90;;;;;;5049192;28;20037;-82
2021/08/14 11:05:43;;;;;;;1.20;0.98;;;22.00;99.90;;;;;;5034704;28;20049;-80
2021/08/14 11:08:30;;;;;;;2.55;1.50;;;22.00;99.90;;;;;;5051518;28;20534;-79
2021/08/14 11:10:57;;;;;;;2.20;1.08;;;22.30;99.90;;;;;;5051789;28;20122;-81
2021/08/14 11:13:35;;;;;;;2.08;1.25;;;22.60;99.90;;;;;;5050512;28;20049;-80
2021/08/14 11:16:01;;;;;;;2.08;1.40;;;22.70;99.90;;;;;;5052610;28;20037;-80
2021/08/14 11:19:05;;;;;;;2.33;1.25;;;22.70;99.90;;;;;;5050065;28;20052;-79
2021/08/14 11:21:45;;;;;;;1.48;1.17;;;22.80;99.90;;;;;;5008894;28;20053;-80
2021/08/14 11:24:36;;;;;;;0.60;0.60;;;23.10;99.90;;;;;;4993264;28;20042;-81
2021/08/14 11:27:15;;;;;;;1.90;1.55;;;23.40;99.90;;;;;;5040038;28;20090;-80
2021/08/14 11:29:42;;;;;;;1.67;1.13;;;23.50;99.90;;;;;;5050683;28;20106;-81
2021/08/14 11:32:08;;;;;;;2.00;1.20;;;23.40;99.90;;;;;;5050297;28;20041;-80
2021/08/14 11:34:35;;;;;;;2.40;1.40;;;23.30;99.90;;;;;;5052459;28;20486;-80
2021/08/14 11:37:01;;;;;;;2.05;1.30;;;23.30;99.90;;;;;;5053274;28;20086;-78
2021/08/14 11:39:31;;;;;;;1.83;1.17;;;23.30;99.90;;;;;;5051809;28;20041;-81
2021/08/14 11:41:57;;;;;;;4.30;1.15;;;23.30;99.90;;;;;;5052181;28;20148;-80
2021/08/14 11:44:25;;;;;;;2.72;1.25;;;23.40;99.90;;;;;;5050868;28;20526;-78
2021/08/14 11:47:05;;;;;;;5.97;1.27;;;23.30;99.90;;;;;;5050191;28;20048;-80
2021/08/14 11:49:50;;;;;;;1.38;0.82;;;22.90;99.90;;;;;;5051042;28;20086;-80
2021/08/14 11:52:20;;;;;;;2.63;1.08;;;22.60;99.90;;;;;;5040134;28;20059;-81
2021/08/14 11:54:46;;;;;;;2.22;1.10;;;22.30;99.90;;;;;;5050163;28;20033;-80
2021/08/14 11:57:12;;;;;;;3.80;0.88;;;22.10;99.90;;;;;;5050401;28;20047;-80
2021/08/14 11:59:38;;;;;;;0.60;0.60;;;22.00;99.90;;;;;;5051843;28;20160;-80
2021/08/14 12:02:05;;;;;;;2.10;1.27;;;22.20;99.90;;;;;;5050453;28;20040;-79
2021/08/14 12:04:31;;;;;;;0.63;0.60;;;22.40;99.90;;;;;;5038625;28;20041;-80
2021/08/14 12:06:58;;;;;;;1.90;1.00;;;22.80;99.90;;;;;;5051496;28;20481;-83
2021/08/14 12:09:25;;;;;;;1.45;0.98;;;22.90;99.90;;;;;;5051772;28;20093;-80
2021/08/14 12:11:55;;;;;;;8.95;0.60;;;22.90;98.10;;;;;;5051467;28;20033;-79
2021/08/14 12:14:24;;;;;;;1.05;0.93;;;22.90;98.30;;;;;;5051037;28;20478;-78
2021/08/14 12:17:01;;;;;;;1.63;1.17;;;23.00;98.20;;;;;;5049814;28;20091;-79
2021/08/14 12:19:27;;;;;;;1.38;1.20;;;23.10;96.50;;;;;;5049816;28;20049;-79
2021/08/14 12:22:13;;;;;;;1.35;0.80;;;22.90;96.90;;;;;;5043601;28;20041;-80
2021/08/14 12:24:40;;;;;;;0.73;0.73;;;22.60;97.50;;;;;;5040654;28;20422;-79
2021/08/14 12:27:27;;;;;;;6.13;1.10;;;22.60;97.70;;;;;;5051682;28;20450;-80
2021/08/14 12:29:54;;;;;;;1.55;1.10;;;22.70;98.70;;;;;;5051703;28;20037;-79
2021/08/14 12:32:19;;;;;;;1.35;1.10;;;23.00;96.20;;;;;;5052602;28;20047;-82
2021/08/14 12:34:46;;;;;;;2.03;1.33;;;23.00;94.60;;;;;;5055270;28;20033;-79
2021/08/14 12:37:15;;;;;;;3.92;0.93;;;23.10;94.00;;;;;;5054133;28;20029;-82
2021/08/14 12:39:56;;;;;;;1.73;0.80;;;23.20;92.90;;;;;;5054147;28;20061;-80
2021/08/14 12:42:23;;;;;;;3.25;1.23;;;23.30;93.60;;;;;;5049489;28;20037;-80
2021/08/14 12:44:49;;;;;;;3.20;1.27;;;23.40;94.80;;;;;;5054895;28;20039;-82
2021/08/14 12:47:33;;;;;;;2.67;1.30;;;23.30;95.20;;;;;;5053758;28;20094;-80
2021/08/14 12:50:23;;;;;;;0.60;0.60;;;23.20;94.90;;;;;;5054880;28;20112;-79
2021/08/14 12:52:54;;;;;;;0.82;0.68;;;23.10;95.50;;;;;;5059249;28;20044;-80
2021/08/14 12:55:27;;;;;;;1.50;1.02;;;23.10;96.20;;;;;;5062744;28;20489;-78
2021/08/14 12:57:53;;;;;;;1.63;0.75;;;23.20;94.50;;;;;;5055227;28;20126;-81
2021/08/14 13:00:19;;;;;;;0.80;0.75;;;23.30;95.00;;;;;;5055917;28;20037;-78
2021/08/14 13:02:50;;;;;;;1.45;0.70;;;23.30;95.70;;;;;;5066241;28;20045;-80